Time;durP1;ratioP1;P1;durP2;ratioP2;P2;SDS_P1;SDS_P2;PMS_P1;PMS_P2;Temp;Humidity;BMP_temperature;BMP_pressure;BME280_temperature;BME280_humidity;BME280_pressure;Samples;Min_cycle;Max_cycle;Signal;HPM_P1;HPM_P2
2021/12/03 00:01:07;;;;;;;7.87;0.73;;;0.60;99.90;;;;;;4821582;29;20531;-79
2021/12/03 00:03:34;;;;;;;5.30;0.75;;;0.60;99.90;;;;;;4823437;29;20084;-80
2021/12/03 00:06:00;;;;;;;5.80;0.70;;;0.60;99.90;;;;;;4808907;29;20114;-80
2021/12/03 00:08:26;;;;;;;6.30;0.80;;;0.60;99.90;;;;;;4819610;29;20385;-80
2021/12/03 00:10:58;;;;;;;6.90;1.10;;;0.60;99.90;;;;;;4833641;29;20052;-81
2021/12/03 00:13:26;;;;;;;4.25;0.52;;;0.60;99.90;;;;;;4826961;29;20298;-80
2021/12/03 00:15:54;;;;;;;6.35;0.90;;;0.70;99.90;;;;;;4824268;29;20042;-80
2021/12/03 00:18:20;;;;;;;4.85;0.60;;;0.90;99.90;;;;;;4824218;29;20049;-81
2021/12/03 00:20:47;;;;;;;5.68;0.57;;;0.80;99.90;;;;;;4807843;29;20046;-81
2021/12/03 00:23:14;;;;;;;4.80;1.00;;;0.90;99.90;;;;;;4818159;29;20125;-81
2021/12/03 00:25:40;;;;;;;6.75;0.50;;;1.00;99.90;;;;;;4827108;29;20185;-80
2021/12/03 00:28:10;;;;;;;1.73;0.50;;;1.00;99.90;;;;;;4809251;29;20439;-80
2021/12/03 00:30:37;;;;;;;3.40;0.70;;;1.00;99.90;;;;;;4823805;29;20073;-80
2021/12/03 00:33:04;;;;;;;4.85;0.40;;;1.10;99.90;;;;;;4809029;29;20557;-81
2021/12/03 00:35:30;;;;;;;2.45;0.50;;;1.10;99.90;;;;;;4818080;29;20794;-80
2021/12/03 00:37:56;;;;;;;4.63;0.50;;;1.10;99.90;;;;;;4812244;29;20587;-81
2021/12/03 00:40:29;;;;;;;7.35;1.10;;;1.10;99.90;;;;;;4836517;29;20831;-80
2021/12/03 00:42:55;;;;;;;4.45;0.50;;;1.10;99.90;;;;;;4827044;29;20354;-80
2021/12/03 00:45:21;;;;;;;3.73;0.43;;;1.20;99.90;;;;;;4810423;29;20076;-80
2021/12/03 00:47:47;;;;;;;5.10;0.63;;;1.10;99.90;;;;;;4830541;29;20052;-80
2021/12/03 00:50:18;;;;;;;5.55;0.60;;;1.20;99.90;;;;;;4807618;29;20034;-80
2021/12/03 00:52:44;;;;;;;8.50;0.65;;;1.20;99.90;;;;;;4834981;29;20539;-80
2021/12/03 00:55:10;;;;;;;4.90;0.55;;;1.20;99.90;;;;;;4825168;29;20041;-80
2021/12/03 00:57:36;;;;;;;4.22;0.60;;;1.20;99.90;;;;;;4827750;29;20045;-80
2021/12/03 01:00:07;;;;;;;3.85;0.68;;;1.20;99.90;;;;;;4825917;29;20527;-80
2021/12/03 01:02:33;;;;;;;4.95;0.60;;;1.20;99.90;;;;;;4837357;29;20074;-80
2021/12/03 01:04:58;;;;;;;5.90;0.50;;;1.20;99.90;;;;;;4807450;29;20037;-80
2021/12/03 01:07:24;;;;;;;4.23;0.70;;;1.20;99.90;;;;;;4795439;29;20088;-80
2021/12/03 01:09:50;;;;;;;5.13;0.50;;;1.20;99.90;;;;;;4810465;29;20057;-80
2021/12/03 01:12:16;;;;;;;5.83;0.70;;;1.20;99.90;;;;;;4797585;29;20046;-80
2021/12/03 01:14:42;;;;;;;6.03;0.68;;;1.20;99.90;;;;;;4827082;29;20116;-80
2021/12/03 01:17:08;;;;;;;4.63;0.63;;;1.20;99.90;;;;;;4827179;29;20132;-81
2021/12/03 01:19:35;;;;;;;5.10;0.57;;;1.20;99.90;;;;;;4841354;29;20050;-80
2021/12/03 01:22:01;;;;;;;3.22;0.57;;;1.20;99.90;;;;;;4846588;29;20054;-80
2021/12/03 01:24:27;;;;;;;5.03;0.73;;;1.20;99.90;;;;;;4826056;29;20041;-80
2021/12/03 01:26:54;;;;;;;7.30;0.70;;;1.20;99.90;;;;;;4812916;29;20049;-80
2021/12/03 01:29:22;;;;;;;3.30;0.82;;;1.30;99.90;;;;;;4809041;29;20044;-79
2021/12/03 01:31:48;;;;;;;3.83;0.80;;;1.30;99.90;;;;;;4831510;29;20050;-80
2021/12/03 01:34:15;;;;;;;5.45;0.82;;;1.30;99.90;;;;;;4812341;29;20057;-79
2021/12/03 01:36:40;;;;;;;3.33;0.60;;;1.40;99.90;;;;;;4841377;29;20059;-79
2021/12/03 01:39:07;;;;;;;4.73;0.47;;;1.40;99.90;;;;;;4824327;29;20057;-79
2021/12/03 01:41:33;;;;;;;4.30;0.98;;;1.40;99.90;;;;;;4831350;29;20046;-79
2021/12/03 01:44:02;;;;;;;4.00;0.68;;;1.40;99.90;;;;;;4804314;29;20053;-79
2021/12/03 01:46:30;;;;;;;8.48;1.13;;;1.50;99.90;;;;;;4825992;29;20512;-79
2021/12/03 01:48:56;;;;;;;6.53;0.68;;;1.60;99.90;;;;;;4826712;29;20124;-79
2021/12/03 01:51:22;;;;;;;12.93;1.40;;;1.50;99.90;;;;;;4834612;29;20426;-79
2021/12/03 01:53:49;;;;;;;6.63;0.50;;;1.50;99.90;;;;;;4793456;29;20042;-79
2021/12/03 01:56:16;;;;;;;5.38;0.50;;;1.50;99.90;;;;;;4835720;29;20054;-79
2021/12/03 01:58:45;;;;;;;4.55;0.65;;;1.50;99.90;;;;;;4825906;29;20488;-79
2021/12/03 02:01:15;;;;;;;6.68;1.08;;;1.50;99.90;;;;;;4806797;29;20065;-79
2021/12/03 02:03:45;;;;;;;4.50;0.85;;;1.50;99.90;;;;;;4839166;29;20594;-79
2021/12/03 02:06:16;;;;;;;6.53;0.80;;;1.60;99.90;;;;;;4819077;29;20368;-79
2021/12/03 02:08:42;;;;;;;5.78;1.00;;;1.50;99.90;;;;;;4825282;29;20045;-79
2021/12/03 02:11:10;;;;;;;6.07;0.77;;;1.60;99.90;;;;;;4825630;29;20037;-80
2021/12/03 02:13:37;;;;;;;7.68;1.10;;;1.50;99.90;;;;;;4825704;29;20295;-80
2021/12/03 02:16:04;;;;;;;3.08;0.65;;;1.60;99.90;;;;;;4810970;29;20046;-80
2021/12/03 02:18:30;;;;;;;7.35;0.77;;;1.60;99.90;;;;;;4810111;29;20413;-80
2021/12/03 02:20:59;;;;;;;7.93;0.90;;;1.60;99.90;;;;;;4825710;29;20405;-80
2021/12/03 02:23:27;;;;;;;9.30;1.60;;;1.60;99.90;;;;;;4825622;29;20080;-80
2021/12/03 02:25:54;;;;;;;6.65;1.00;;;1.60;99.90;;;;;;4826243;29;20603;-80
2021/12/03 02:28:23;;;;;;;3.17;0.73;;;1.60;99.90;;;;;;4810183;29;20208;-80
2021/12/03 02:30:49;;;;;;;7.20;1.02;;;1.60;99.90;;;;;;4824717;29;20050;-79
2021/12/03 02:33:15;;;;;;;6.18;0.98;;;1.70;99.90;;;;;;4825707;29;20109;-80
2021/12/03 02:35:43;;;;;;;5.78;0.88;;;1.70;99.90;;;;;;4822701;29;20041;-80
2021/12/03 02:38:10;;;;;;;7.53;0.80;;;1.70;99.90;;;;;;4839400;29;20044;-80
2021/12/03 02:40:36;;;;;;;6.63;1.10;;;1.80;99.90;;;;;;4809519;29;20101;-80
2021/12/03 02:43:02;;;;;;;3.97;0.70;;;1.80;99.90;;;;;;4834423;29;20038;-80
2021/12/03 02:45:28;;;;;;;8.35;1.00;;;1.80;99.90;;;;;;4816206;29;20101;-80
2021/12/03 02:47:56;;;;;;;4.93;0.97;;;1.90;99.90;;;;;;4809454;29;20053;-80
2021/12/03 02:50:22;;;;;;;7.78;0.93;;;1.90;99.90;;;;;;4826162;29;20093;-80
2021/12/03 02:52:49;;;;;;;6.95;1.00;;;2.00;99.90;;;;;;4839663;29;20041;-79
2021/12/03 02:55:16;;;;;;;4.55;1.00;;;2.00;99.90;;;;;;4835450;29;20185;-79
2021/12/03 02:57:42;;;;;;;9.20;1.15;;;2.00;99.90;;;;;;4810447;29;20095;-79
2021/12/03 03:00:12;;;;;;;8.77;1.70;;;2.00;99.90;;;;;;4801071;29;20109;-80
2021/12/03 03:02:40;;;;;;;7.93;1.20;;;2.10;99.90;;;;;;4819465;29;20143;-80
2021/12/03 03:05:07;;;;;;;12.50;1.88;;;2.10;99.90;;;;;;4809785;29;20097;-80
2021/12/03 03:07:32;;;;;;;6.70;1.88;;;2.10;99.90;;;;;;4798330;29;20049;-80
2021/12/03 03:09:58;;;;;;;5.93;1.20;;;2.10;99.90;;;;;;4812365;29;20049;-79
2021/12/03 03:12:24;;;;;;;7.97;1.60;;;2.10;99.90;;;;;;4798400;29;20057;-79
2021/12/03 03:14:58;;;;;;;9.80;1.95;;;2.00;99.90;;;;;;4830527;29;20046;-79
2021/12/03 03:17:28;;;;;;;11.32;2.30;;;2.10;99.90;;;;;;4825196;29;20045;-79
2021/12/03 03:19:55;;;;;;;8.98;2.42;;;2.00;99.90;;;;;;4833561;29;20037;-79
2021/12/03 03:22:22;;;;;;;8.05;2.50;;;2.10;99.90;;;;;;4823766;29;20063;-79
2021/12/03 03:24:49;;;;;;;7.47;2.00;;;2.10;99.90;;;;;;4824487;29;20053;-79
2021/12/03 03:27:15;;;;;;;11.45;2.40;;;2.00;99.90;;;;;;4844853;29;20389;-81
2021/12/03 03:29:44;;;;;;;11.40;2.55;;;2.00;99.90;;;;;;4833769;29;20050;-81
2021/12/03 03:32:10;;;;;;;3.78;1.80;;;2.10;99.90;;;;;;4808851;29;20046;-81
2021/12/03 03:34:36;;;;;;;11.93;2.97;;;2.00;99.90;;;;;;4823168;29;20132;-78
2021/12/03 03:37:02;;;;;;;8.63;2.83;;;2.00;99.90;;;;;;4812817;29;20078;-78
2021/12/03 03:39:28;;;;;;;7.25;2.83;;;2.00;99.90;;;;;;4822905;29;20045;-78
2021/12/03 03:41:54;;;;;;;8.73;3.33;;;2.00;99.90;;;;;;4834273;29;20125;-78
2021/12/03 03:44:20;;;;;;;6.97;3.22;;;2.10;99.90;;;;;;4822985;29;20092;-78
2021/12/03 03:46:49;;;;;;;8.80;3.05;;;2.10;99.90;;;;;;4823571;29;20089;-78
2021/12/03 03:49:15;;;;;;;9.82;3.30;;;2.10;99.90;;;;;;4838137;29;20481;-78
2021/12/03 03:51:40;;;;;;;15.10;3.92;;;2.10;99.90;;;;;;4823116;29;20514;-78
2021/12/03 03:54:07;;;;;;;12.63;4.30;;;2.00;99.90;;;;;;4834046;29;20041;-78
2021/12/03 03:56:33;;;;;;;10.18;3.60;;;2.10;99.90;;;;;;4841902;29;20087;-78
2021/12/03 03:58:58;;;;;;;8.70;3.13;;;2.10;99.90;;;;;;4824351;29;20088;-78
2021/12/03 04:01:25;;;;;;;10.07;3.40;;;2.10;99.90;;;;;;4796368;29;20054;-78
2021/12/03 04:03:50;;;;;;;10.30;3.20;;;2.10;99.90;;;;;;4831822;29;20051;-78
2021/12/03 04:06:18;;;;;;;11.30;2.80;;;2.10;99.90;;;;;;4822485;29;20045;-78
2021/12/03 04:08:46;;;;;;;7.97;3.25;;;2.20;99.90;;;;;;4824556;29;20043;-78
2021/12/03 04:11:12;;;;;;;7.40;2.88;;;2.20;99.90;;;;;;4809108;29;20845;-78
2021/12/03 04:13:38;;;;;;;8.90;2.53;;;2.30;99.90;;;;;;4822621;29;20049;-78
2021/12/03 04:16:04;;;;;;;13.60;2.80;;;2.40;99.90;;;;;;4808908;29;20037;-78
2021/12/03 04:18:31;;;;;;;10.70;2.10;;;2.40;99.90;;;;;;4822619;29;20085;-78
2021/12/03 04:20:57;;;;;;;7.90;2.00;;;2.50;99.90;;;;;;4822754;29;20500;-78
2021/12/03 04:23:23;;;;;;;8.13;2.10;;;2.50;99.90;;;;;;4807462;29;20101;-78
2021/12/03 04:25:50;;;;;;;8.30;1.60;;;2.50;99.90;;;;;;4806659;29;20045;-78
2021/12/03 04:28:17;;;;;;;7.45;1.42;;;2.50;99.90;;;;;;4817600;29;20042;-78
2021/12/03 04:30:43;;;;;;;6.90;1.73;;;2.50;99.90;;;;;;4809855;29;20053;-78
2021/12/03 04:33:09;;;;;;;4.67;1.20;;;2.40;99.90;;;;;;4827502;29;20081;-78
2021/12/03 04:35:36;;;;;;;4.97;1.20;;;2.50;99.90;;;;;;4824697;29;20298;-78
2021/12/03 04:38:03;;;;;;;4.90;1.50;;;2.50;99.90;;;;;;4828259;29;20286;-78
2021/12/03 04:40:30;;;;;;;9.95;1.23;;;2.60;99.90;;;;;;4823775;29;20504;-78
2021/12/03 04:42:56;;;;;;;6.65;1.55;;;2.50;99.90;;;;;;4796464;29;20473;-78
2021/12/03 04:45:24;;;;;;;7.73;1.97;;;2.50;99.90;;;;;;4813261;29;20124;-78
2021/12/03 04:47:51;;;;;;;8.45;1.08;;;2.50;99.90;;;;;;4830960;29;20053;-78
2021/12/03 04:50:20;;;;;;;7.80;1.08;;;2.50;99.90;;;;;;4812229;29;20041;-78
2021/12/03 04:52:46;;;;;;;5.32;1.00;;;2.50;99.90;;;;;;4832965;29;20116;-78
2021/12/03 04:55:13;;;;;;;6.97;1.17;;;2.50;99.90;;;;;;4825653;29;20037;-78
2021/12/03 04:57:40;;;;;;;4.90;1.10;;;2.40;99.90;;;;;;4810646;29;20053;-78
2021/12/03 05:00:10;;;;;;;7.95;1.08;;;2.50;99.90;;;;;;4821504;29;20153;-78
2021/12/03 05:02:35;;;;;;;8.48;1.42;;;2.40;99.90;;;;;;4811251;29;20058;-78
2021/12/03 05:05:04;;;;;;;4.40;1.00;;;2.40;99.90;;;;;;4816323;29;20056;-78
2021/12/03 05:07:42;;;;;;;5.97;1.30;;;2.40;99.90;;;;;;4825312;29;20053;-78
2021/12/03 05:10:09;;;;;;;6.10;0.85;;;2.40;99.90;;;;;;4813479;29;20042;-78
2021/12/03 05:12:36;;;;;;;8.95;1.20;;;2.40;99.90;;;;;;4825327;29;20064;-78
2021/12/03 05:15:03;;;;;;;6.05;1.08;;;2.40;99.90;;;;;;4811206;29;20565;-78
2021/12/03 05:17:29;;;;;;;9.43;0.95;;;2.40;99.90;;;;;;4824481;29;20049;-78
2021/12/03 05:19:54;;;;;;;3.83;0.53;;;2.50;99.90;;;;;;4826599;29;20055;-78
2021/12/03 05:22:20;;;;;;;4.03;1.00;;;2.50;99.90;;;;;;4832926;29;20306;-78
2021/12/03 05:24:46;;;;;;;9.77;1.70;;;2.50;99.90;;;;;;4825450;29;20528;-78
2021/12/03 05:27:17;;;;;;;7.07;1.13;;;2.50;99.90;;;;;;4812740;29;20041;-78
2021/12/03 05:29:45;;;;;;;6.95;1.17;;;2.50;99.90;;;;;;4802297;29;20042;-78
2021/12/03 05:32:11;;;;;;;6.82;1.30;;;2.50;99.90;;;;;;4838955;29;20530;-78
2021/12/03 05:34:38;;;;;;;4.18;1.45;;;2.50;99.90;;;;;;4840506;29;20114;-78
2021/12/03 05:37:05;;;;;;;7.05;1.42;;;2.60;99.90;;;;;;4825674;29;20139;-78
2021/12/03 05:39:32;;;;;;;5.03;1.10;;;2.60;99.90;;;;;;4824182;29;20045;-78
2021/12/03 05:41:57;;;;;;;6.45;1.35;;;2.70;99.90;;;;;;4811565;29;20136;-78
2021/12/03 05:44:23;;;;;;;6.37;1.83;;;2.70;99.90;;;;;;4810572;29;20482;-78
2021/12/03 05:46:49;;;;;;;7.80;1.63;;;2.70;99.90;;;;;;4794939;29;20057;-78
2021/12/03 05:49:14;;;;;;;7.00;1.70;;;2.80;99.90;;;;;;4794610;29;20050;-78
2021/12/03 05:51:40;;;;;;;6.53;1.43;;;2.80;99.90;;;;;;4824491;29;20056;-78
2021/12/03 05:54:06;;;;;;;9.90;2.20;;;2.90;99.90;;;;;;4825937;29;20098;-78
2021/12/03 05:56:32;;;;;;;4.40;1.67;;;3.00;99.90;;;;;;4797514;29;20471;-78
2021/12/03 05:58:58;;;;;;;8.57;2.23;;;3.00;99.90;;;;;;4823861;29;20416;-78
2021/12/03 06:01:23;;;;;;;8.87;2.30;;;3.10;99.90;;;;;;4815338;29;20512;-78
2021/12/03 06:03:49;;;;;;;4.97;1.57;;;3.20;99.90;;;;;;4794657;29;20053;-78
2021/12/03 06:06:15;;;;;;;6.93;1.77;;;3.30;99.90;;;;;;4814879;29;20060;-78
2021/12/03 06:08:43;;;;;;;9.35;1.48;;;3.30;99.90;;;;;;4805766;29;20042;-77
2021/12/03 06:11:09;;;;;;;6.40;1.60;;;3.30;99.90;;;;;;4828536;29;20045;-78
2021/12/03 06:13:39;;;;;;;8.80;2.73;;;3.30;99.90;;;;;;4823715;29;20076;-78
2021/12/03 06:16:10;;;;;;;9.63;1.75;;;3.40;99.90;;;;;;4823581;29;20060;-78
2021/12/03 06:18:36;;;;;;;11.55;1.98;;;3.40;99.90;;;;;;4828584;29;20045;-78
2021/12/03 06:21:03;;;;;;;12.80;2.30;;;3.40;99.90;;;;;;4809048;29;20033;-78
2021/12/03 06:23:29;;;;;;;6.47;2.10;;;3.40;99.90;;;;;;4815976;29;20057;-78
2021/12/03 06:25:57;;;;;;;9.37;1.90;;;3.30;99.90;;;;;;4827182;29;20049;-78
2021/12/03 06:28:24;;;;;;;7.78;2.35;;;3.30;99.90;;;;;;4829702;29;20286;-78
2021/12/03 06:30:50;;;;;;;11.60;3.58;;;3.30;99.90;;;;;;4808452;29;20049;-78
2021/12/03 06:33:16;;;;;;;9.90;3.00;;;3.30;99.90;;;;;;4789050;29;20037;-78
2021/12/03 06:35:41;;;;;;;9.50;3.10;;;3.30;99.90;;;;;;4824488;29;20082;-78
2021/12/03 06:38:07;;;;;;;9.50;3.70;;;3.30;99.90;;;;;;4839248;29;20045;-78
2021/12/03 06:40:33;;;;;;;10.70;5.03;;;3.20;99.90;;;;;;4810102;29;20488;-79
2021/12/03 06:42:59;;;;;;;18.40;6.53;;;3.20;99.90;;;;;;4812086;29;20044;-78
2021/12/03 06:45:25;;;;;;;9.53;6.03;;;3.20;99.90;;;;;;4795871;29;20034;-78
2021/12/03 06:47:52;;;;;;;20.52;6.85;;;3.20;99.90;;;;;;4840575;29;20045;-78
2021/12/03 06:50:18;;;;;;;17.73;7.40;;;3.20;99.90;;;;;;4840024;29;20197;-78
2021/12/03 06:52:48;;;;;;;10.60;6.32;;;3.20;99.90;;;;;;4806397;29;20053;-78
2021/12/03 06:55:15;;;;;;;11.02;5.78;;;3.20;99.90;;;;;;4808466;29;20045;-78
2021/12/03 06:57:44;;;;;;;15.18;4.78;;;3.20;99.90;;;;;;4808685;29;20050;-78
2021/12/03 07:00:14;;;;;;;10.00;3.60;;;3.20;99.90;;;;;;4838842;29;20053;-78
2021/12/03 07:02:40;;;;;;;11.35;3.60;;;3.20;99.90;;;;;;4839117;29;20057;-78
2021/12/03 07:05:08;;;;;;;13.32;4.43;;;3.30;99.90;;;;;;4809318;29;20056;-78
2021/12/03 07:07:34;;;;;;;10.25;5.22;;;3.30;99.90;;;;;;4825833;29;20459;-78
2021/12/03 07:10:00;;;;;;;19.88;6.70;;;3.30;99.90;;;;;;4794308;29;20048;-78
2021/12/03 07:12:27;;;;;;;14.35;6.53;;;3.30;99.90;;;;;;4809280;29;20041;-78
2021/12/03 07:14:52;;;;;;;14.48;6.82;;;3.30;99.90;;;;;;4810093;29;20049;-78
2021/12/03 07:17:18;;;;;;;15.77;7.20;;;3.30;99.90;;;;;;4814053;29;20048;-78
2021/12/03 07:19:44;;;;;;;11.20;6.00;;;3.40;99.90;;;;;;4822725;29;20388;-78
2021/12/03 07:22:17;;;;;;;11.87;5.37;;;3.40;99.90;;;;;;5128733;27;1306766;-77
2021/12/03 07:24:43;;;;;;;11.10;4.70;;;3.40;99.90;;;;;;5130266;27;20065;-77
2021/12/03 07:27:09;;;;;;;14.90;4.90;;;3.40;99.90;;;;;;5095521;27;20066;-78
2021/12/03 07:29:34;;;;;;;13.10;3.80;;;3.50;99.90;;;;;;5083325;27;20078;-78
2021/12/03 07:32:00;;;;;;;9.60;3.33;;;3.50;99.90;;;;;;5111965;27;20041;-78
2021/12/03 07:34:26;;;;;;;10.57;3.00;;;3.50;99.90;;;;;;5130774;27;20049;-78
2021/12/03 07:36:51;;;;;;;13.50;3.47;;;3.50;99.90;;;;;;5110259;27;20070;-78
2021/12/03 07:39:17;;;;;;;13.20;3.20;;;3.50;99.90;;;;;;5122336;27;20134;-78
2021/12/03 07:41:43;;;;;;;10.63;2.20;;;3.50;99.90;;;;;;5093814;27;20487;-78
2021/12/03 07:44:09;;;;;;;11.87;2.70;;;3.60;99.90;;;;;;5102212;27;20046;-78
2021/12/03 07:46:34;;;;;;;7.33;2.00;;;3.60;99.90;;;;;;5128968;27;20162;-80
2021/12/03 07:49:00;;;;;;;12.93;2.93;;;3.60;99.90;;;;;;5129607;27;20031;-80
2021/12/03 07:51:26;;;;;;;13.10;2.77;;;3.60;99.90;;;;;;5110332;27;20042;-79
2021/12/03 07:53:52;;;;;;;12.38;2.22;;;3.70;99.90;;;;;;5092569;27;20050;-80
2021/12/03 07:56:18;;;;;;;9.03;2.20;;;3.70;99.90;;;;;;5128880;27;20038;-80
2021/12/03 07:58:44;;;;;;;12.13;2.80;;;3.70;99.90;;;;;;5102555;27;20126;-80
2021/12/03 08:01:09;;;;;;;11.37;2.40;;;3.80;99.90;;;;;;5107614;27;20421;-80
2021/12/03 08:03:35;;;;;;;7.90;1.93;;;3.80;99.90;;;;;;5108290;27;20034;-80
2021/12/03 08:06:05;;;;;;;13.50;3.77;;;3.80;99.90;;;;;;5093017;27;20035;-80
2021/12/03 08:08:31;;;;;;;9.98;5.15;;;3.80;99.90;;;;;;5089705;27;20373;-80
2021/12/03 08:10:57;;;;;;;13.15;4.75;;;3.80;99.90;;;;;;5090400;27;20124;-80
2021/12/03 08:13:23;;;;;;;11.77;5.70;;;3.90;99.90;;;;;;5074372;27;20446;-80
2021/12/03 08:15:48;;;;;;;15.30;4.40;;;3.90;99.90;;;;;;5079402;27;20450;-80
2021/12/03 08:18:14;;;;;;;10.30;2.40;;;3.90;99.90;;;;;;5081635;28;20130;-80
2021/12/03 08:20:40;;;;;;;8.48;1.92;;;3.90;99.90;;;;;;5088415;27;20196;-79
2021/12/03 08:23:06;;;;;;;9.87;2.07;;;4.00;99.90;;;;;;5111055;27;20476;-79
2021/12/03 08:25:32;;;;;;;10.63;1.57;;;4.00;99.90;;;;;;5106822;27;20039;-80
2021/12/03 08:27:58;;;;;;;9.85;2.63;;;4.00;99.90;;;;;;5109011;27;20039;-80
2021/12/03 08:30:30;;;;;;;9.37;2.93;;;4.00;99.90;;;;;;5126326;27;20039;-80
2021/12/03 08:32:57;;;;;;;11.93;2.10;;;4.00;99.90;;;;;;5089006;27;20378;-80
2021/12/03 08:35:23;;;;;;;7.55;1.77;;;4.10;99.90;;;;;;5091342;27;20039;-80
2021/12/03 08:37:50;;;;;;;9.93;2.05;;;4.10;99.90;;;;;;5059806;27;20050;-80
2021/12/03 08:40:17;;;;;;;8.13;1.80;;;4.00;99.90;;;;;;5076669;27;20113;-80
2021/12/03 08:42:43;;;;;;;8.65;2.58;;;4.10;99.90;;;;;;5101125;27;20042;-80
2021/12/03 08:45:09;;;;;;;16.53;4.23;;;4.10;99.90;;;;;;5090090;27;20427;-80
2021/12/03 08:47:36;;;;;;;14.55;4.82;;;4.10;99.90;;;;;;5076387;27;20665;-80
2021/12/03 08:50:07;;;;;;;16.77;5.95;;;4.10;99.90;;;;;;5090909;27;20035;-80
2021/12/03 08:52:50;;;;;;;16.15;5.95;;;4.10;99.90;;;;;;5093439;27;20117;-79
2021/12/03 08:55:16;;;;;;;18.98;6.55;;;4.10;99.90;;;;;;5091697;27;20078;-79
2021/12/03 08:57:42;;;;;;;15.57;6.10;;;4.20;99.90;;;;;;5091523;27;20530;-80
2021/12/03 09:00:16;;;;;;;15.45;6.47;;;4.20;99.90;;;;;;5089514;27;20032;-80
2021/12/03 09:02:42;;;;;;;15.45;5.40;;;4.20;99.90;;;;;;5098671;27;20042;-80
2021/12/03 09:05:09;;;;;;;13.98;5.57;;;4.20;99.90;;;;;;5073749;27;20115;-80
2021/12/03 09:07:36;;;;;;;17.20;5.00;;;4.20;99.90;;;;;;5089352;27;20054;-80
2021/12/03 09:10:04;;;;;;;13.55;4.82;;;4.30;99.90;;;;;;5070754;27;20104;-80
2021/12/03 09:12:30;;;;;;;16.95;4.95;;;4.30;99.90;;;;;;5103942;27;20408;-80
2021/12/03 09:15:03;;;;;;;12.63;3.97;;;4.30;99.90;;;;;;5078973;27;20491;-79
2021/12/03 09:24:56;;;;;;;12.57;4.32;;;4.40;99.90;;;;;;5085910;27;20047;-79
2021/12/03 09:27:22;;;;;;;10.60;4.80;;;4.40;99.90;;;;;;5084133;27;20457;-79
2021/12/03 09:29:49;;;;;;;14.97;5.30;;;4.40;99.90;;;;;;5069891;27;20039;-79
2021/12/03 09:32:21;;;;;;;12.13;4.90;;;4.40;99.90;;;;;;5104769;27;20042;-79
2021/12/03 09:34:47;;;;;;;16.33;4.47;;;4.40;99.90;;;;;;5090407;27;20102;-79
2021/12/03 09:37:13;;;;;;;13.40;4.20;;;4.50;99.90;;;;;;5074474;27;20067;-79
2021/12/03 09:39:41;;;;;;;13.73;4.10;;;4.50;99.90;;;;;;5074482;27;20303;-78
2021/12/03 09:42:07;;;;;;;15.30;3.55;;;4.60;99.90;;;;;;5071673;27;20605;-79
2021/12/03 09:44:33;;;;;;;15.65;4.10;;;4.60;99.90;;;;;;5077725;27;20040;-79
2021/12/03 09:47:00;;;;;;;14.05;4.10;;;4.60;99.90;;;;;;5070280;27;20136;-79
2021/12/03 09:49:32;;;;;;;17.58;4.30;;;4.60;99.90;;;;;;5068060;27;20046;-79
2021/12/03 09:54:43;;;;;;;11.40;3.45;;;4.60;99.90;;;;;;5102502;27;20053;-79
2021/12/03 10:03:03;;;;;;;11.57;4.15;;;4.80;99.90;;;;;;5108698;27;20100;-79
2021/12/03 10:14:05;;;;;;;19.60;5.05;;;4.90;99.90;;;;;;5102425;27;20040;-79
2021/12/03 10:17:21;;;;;;;;;;;4.90;99.90;;;;;;5079120;27;20050;-79
2021/12/03 10:19:35;;;;;;;14.57;4.00;;;4.80;99.90;;;;;;5091987;27;19985;-79
2021/12/03 10:33:39;;;;;;;15.05;5.22;;;4.70;99.90;;;;;;5072763;28;20043;-79
2021/12/03 10:36:06;;;;;;;12.60;4.10;;;4.60;99.90;;;;;;5056241;28;20446;-79
2021/12/03 10:38:52;;;;;;;12.13;3.58;;;4.60;99.90;;;;;;5071261;28;20063;-79
2021/12/03 10:44:15;;;;;;;19.33;5.47;;;4.50;99.90;;;;;;5075779;28;20055;-79
2021/12/03 10:52:12;;;;;;;12.18;3.80;;;4.50;99.90;;;;;;5083499;28;20048;-79
2021/12/03 11:03:17;;;;;;;8.35;2.78;;;4.30;99.90;;;;;;5066574;28;20537;-79
2021/12/03 11:06:16;;;;;;;8.63;3.03;;;4.30;99.90;;;;;;5077444;28;20051;-79
2021/12/03 11:11:14;;;;;;;9.90;3.25;;;4.30;99.90;;;;;;5083727;28;20051;-79
2021/12/03 11:12:09;;;;;;;10.35;3.55;;;4.30;99.90;;;;;;5082501;28;20355;-79
2021/12/03 11:21:32;;;;;;;8.18;3.20;;;4.20;99.90;;;;;;5004613;28;20069;-79
2021/12/03 12:39:36;;;;;;;13.23;6.70;;;4.20;99.90;;;;;;5084804;28;20117;-78
2021/12/03 12:44:57;;;;;;;15.25;7.07;;;4.20;99.90;;;;;;5088517;28;20075;-78
2021/12/03 12:49:03;;;;;;;17.50;7.60;;;4.20;99.90;;;;;;5074439;28;20056;-80
2021/12/03 13:01:56;;;;;;;11.70;4.93;;;4.30;99.90;;;;;;5089932;28;20044;-78
2021/12/03 13:16:20;;;;;;;9.30;4.10;;;4.30;99.90;;;;;;5085940;28;20182;-79
2021/12/03 13:59:07;;;;;;;14.10;5.45;;;4.40;99.90;;;;;;5093115;27;20061;-79
2021/12/03 14:38:48;;;;;;;20.23;9.07;;;4.20;99.90;;;;;;5107683;27;20134;-78
2021/12/03 14:41:43;;;;;;;20.75;9.70;;;4.20;99.90;;;;;;5077045;27;20035;-78
2021/12/03 14:56:44;;;;;;;22.38;13.10;;;4.20;99.90;;;;;;5108355;27;20038;-78
2021/12/03 14:59:21;;;;;;;24.48;13.38;;;4.20;99.90;;;;;;5065425;28;20085;-78
2021/12/03 15:01:54;;;;;;;24.23;13.27;;;4.20;99.90;;;;;;5088049;28;20043;-78
2021/12/03 15:07:06;;;;;;;23.38;12.75;;;4.30;99.90;;;;;;5076706;28;20047;-78
2021/12/03 15:09:43;;;;;;;26.10;13.90;;;4.30;99.90;;;;;;5073036;27;20036;-78
2021/12/03 16:04:50;;;;;;;32.92;19.55;;;4.30;99.90;;;;;;5108668;27;20448;-78
2021/12/03 16:12:49;;;;;;;34.00;21.58;;;4.30;99.90;;;;;;5102714;27;20154;-79
2021/12/03 16:52:45;;;;;;;30.77;20.30;;;4.40;99.90;;;;;;5062533;28;20044;-80
2021/12/03 16:55:11;;;;;;;32.05;20.98;;;4.50;99.90;;;;;;5089119;28;20110;-79
2021/12/03 16:57:38;;;;;;;29.42;19.55;;;4.40;99.90;;;;;;5089023;28;20043;-79
2021/12/03 17:00:35;;;;;;;27.58;18.67;;;4.40;99.90;;;;;;5080567;28;20044;-80
2021/12/03 17:03:21;;;;;;;30.35;19.73;;;4.40;99.90;;;;;;5103274;28;20051;-79
2021/12/03 17:22:16;;;;;;;28.48;19.20;;;4.50;99.90;;;;;;5079582;28;20092;-79
2021/12/03 17:30:31;;;;;;;28.92;18.67;;;4.50;99.90;;;;;;5085581;28;20413;-79
2021/12/03 17:56:38;;;;;;;33.42;19.48;;;4.60;99.90;;;;;;5080856;28;20127;-79
2021/12/03 17:59:19;;;;;;;34.00;19.35;;;4.60;99.90;;;;;;5082780;28;20047;-80
2021/12/03 18:01:55;;;;;;;33.88;19.60;;;4.60;99.90;;;;;;5064487;28;20049;-79
2021/12/03 18:04:42;;;;;;;35.88;20.17;;;4.60;99.90;;;;;;5079593;28;20111;-79
2021/12/03 18:07:24;;;;;;;29.83;18.55;;;4.60;99.90;;;;;;5058276;28;20127;-76
2021/12/03 18:50:53;;;;;;;58.20;28.92;;;4.70;99.90;;;;;;5069716;28;20048;-78
2021/12/03 18:55:48;;;;;;;54.80;28.63;;;4.70;99.90;;;;;;5079395;28;20079;-78
2021/12/03 18:58:13;;;;;;;58.83;28.80;;;4.70;99.90;;;;;;5077325;28;20128;-78
2021/12/03 19:00:43;;;;;;;57.47;28.73;;;4.70;99.90;;;;;;5048983;28;20057;-78
2021/12/03 19:08:18;;;;;;;60.93;31.57;;;4.70;99.90;;;;;;5065642;28;20048;-79
2021/12/03 19:10:51;;;;;;;62.17;32.30;;;4.70;99.90;;;;;;5081997;28;20059;-78
2021/12/03 19:13:23;;;;;;;64.53;32.42;;;4.70;99.90;;;;;;5061549;28;20044;-78
2021/12/03 19:15:50;;;;;;;69.03;32.60;;;4.70;99.90;;;;;;5071405;28;20405;-79
2021/12/03 19:18:18;;;;;;;72.65;34.22;;;4.70;99.90;;;;;;5025932;28;20055;-78
2021/12/03 19:20:44;;;;;;;75.25;34.65;;;4.80;99.90;;;;;;5046854;28;20185;-79
2021/12/03 19:23:10;;;;;;;66.65;33.45;;;4.80;99.90;;;;;;5048159;28;20135;-78
2021/12/03 19:25:37;;;;;;;71.93;35.23;;;4.80;99.90;;;;;;5066131;28;20175;-78
2021/12/03 19:28:03;;;;;;;71.53;37.00;;;4.80;99.90;;;;;;5065322;28;20456;-78
2021/12/03 19:30:29;;;;;;;72.18;39.20;;;4.80;99.90;;;;;;5064956;28;20605;-78
2021/12/03 19:32:54;;;;;;;79.70;36.73;;;4.80;99.90;;;;;;5075472;28;20062;-79
2021/12/03 19:35:20;;;;;;;67.83;37.27;;;4.80;99.90;;;;;;5049771;28;20051;-79
2021/12/03 19:37:50;;;;;;;75.72;37.67;;;4.80;99.90;;;;;;5052674;28;20047;-79
2021/12/03 19:40:16;;;;;;;75.72;36.33;;;4.80;99.90;;;;;;5042546;28;20047;-79
2021/12/03 19:42:57;;;;;;;75.67;35.20;;;4.80;99.90;;;;;;5025213;28;20045;-79
2021/12/03 19:45:27;;;;;;;76.00;34.75;;;4.80;99.90;;;;;;5100421;28;20544;-79
2021/12/03 19:48:13;;;;;;;76.40;37.45;;;4.80;99.90;;;;;;5058819;28;20039;-79
2021/12/03 19:50:47;;;;;;;73.15;35.97;;;4.80;99.90;;;;;;5056394;28;20041;-79
2021/12/03 19:53:16;;;;;;;79.00;37.72;;;4.80;99.90;;;;;;5044309;28;20688;-79
2021/12/03 19:55:44;;;;;;;77.75;35.80;;;4.80;99.90;;;;;;5062293;28;20051;-79
2021/12/03 19:58:12;;;;;;;80.10;37.70;;;4.90;99.90;;;;;;5080889;28;20060;-78
2021/12/03 20:00:40;;;;;;;79.22;36.40;;;4.80;99.90;;;;;;5065331;28;20035;-79
2021/12/03 20:03:08;;;;;;;79.60;37.00;;;4.80;99.90;;;;;;5066521;28;20086;-79
2021/12/03 20:05:38;;;;;;;71.28;35.58;;;4.80;99.90;;;;;;5055903;28;20044;-79
2021/12/03 20:08:06;;;;;;;72.07;36.17;;;4.80;99.90;;;;;;5081130;28;20099;-79
2021/12/03 20:10:37;;;;;;;71.80;35.58;;;4.80;99.90;;;;;;5065382;28;20035;-79
2021/12/03 20:13:05;;;;;;;73.15;35.10;;;4.80;99.90;;;;;;5076416;28;20058;-79
2021/12/03 20:15:41;;;;;;;71.60;35.25;;;4.80;99.90;;;;;;5042596;28;20044;-79
2021/12/03 20:18:34;;;;;;;81.03;36.97;;;4.80;99.90;;;;;;5063809;28;20047;-80
2021/12/03 20:21:00;;;;;;;71.88;34.47;;;4.80;99.90;;;;;;5050711;28;20426;-79